createdAt,value
2023-04-09T00:01:28.596Z,99377.84
2023-04-09T00:03:55.202Z,99373.56
2023-04-09T00:06:21.597Z,99369.28
2023-04-09T00:08:47.895Z,99374.84
2023-04-09T00:11:14.217Z,99374.84
2023-04-09T00:13:40.653Z,99375.41
2023-04-09T00:16:07.451Z,99372.38
2023-04-09T00:18:33.869Z,99374.47
2023-04-09T00:21:00.559Z,99373.41
2023-04-09T00:23:26.911Z,99372.38
2023-04-09T00:25:53.248Z,99374.00
2023-04-09T00:28:19.644Z,99367.06
2023-04-09T00:30:45.957Z,99370.75
2023-04-09T00:33:12.287Z,99370.75
2023-04-09T00:35:38.630Z,99371.81
2023-04-09T00:38:04.964Z,99365.44
2023-04-09T00:40:31.406Z,99359.75
2023-04-09T00:42:57.722Z,99362.53
2023-04-09T00:45:24.199Z,99358.03
2023-04-09T00:47:50.624Z,99362.53
2023-04-09T00:50:17.006Z,99361.75
2023-04-09T00:52:43.332Z,99355.84
2023-04-09T00:55:09.819Z,99357.69
2023-04-09T00:57:36.374Z,99348.91
2023-04-09T01:00:04.270Z,99354.22
2023-04-09T01:02:31.317Z,99354.22
2023-04-09T01:04:57.806Z,99347.28
2023-04-09T01:07:31.728Z,99343.00
2023-04-09T01:10:01.302Z,99354.22
2023-04-09T01:12:31.527Z,99350.75
2023-04-09T01:15:03.529Z,99352.59
2023-04-09T01:17:38.433Z,99350.97
2023-04-09T01:20:12.087Z,99350.16
2023-04-09T01:22:56.738Z,99348.56
2023-04-09T01:25:29.356Z,99353.06
2023-04-09T01:28:13.951Z,99355.94
2023-04-09T01:30:40.790Z,99353.06
2023-04-09T01:33:07.196Z,99355.72
2023-04-09T01:35:33.557Z,99355.72
2023-04-09T01:37:59.911Z,99355.50
2023-04-09T01:40:26.245Z,99350.16
2023-04-09T01:42:52.562Z,99357.91
2023-04-09T01:45:18.873Z,99361.03
2023-04-09T01:47:45.266Z,99361.03
2023-04-09T01:50:11.599Z,99363.91
2023-04-09T01:52:37.926Z,99361.50
2023-04-09T01:55:04.312Z,99360.94
2023-04-09T01:57:30.766Z,99365.19
2023-04-09T01:59:57.117Z,99365.63
2023-04-09T02:02:29.130Z,99358.72
2023-04-09T02:04:55.973Z,99368.78
2023-04-09T02:07:27.360Z,99360.19
2023-04-09T02:09:53.690Z,99368.41
2023-04-09T02:12:20.358Z,99364.72
2023-04-09T02:14:46.931Z,99366.78
2023-04-09T02:17:13.244Z,99356.16
2023-04-09T02:19:39.648Z,99360.63
2023-04-09T02:22:05.980Z,99355.31
2023-04-09T02:24:32.282Z,99363.28
2023-04-09T02:26:58.591Z,99357.97
2023-04-09T02:29:24.915Z,99356.16
2023-04-09T02:31:53.126Z,99361.69
2023-04-09T02:34:19.858Z,99346.78
2023-04-09T02:36:46.156Z,99344.69
2023-04-09T02:39:12.458Z,99347.59
2023-04-09T02:41:38.773Z,99347.34
2023-04-09T02:44:05.128Z,99350.25
2023-04-09T02:46:31.566Z,99348.38
2023-04-09T02:48:57.899Z,99349.44
2023-04-09T02:51:24.221Z,99348.38
2023-04-09T02:53:50.567Z,99340.88
2023-04-09T02:56:16.894Z,99336.59
2023-04-09T02:58:43.216Z,99335.78
2023-04-09T03:01:09.585Z,99338.69
2023-04-09T03:03:37.388Z,99333.59
2023-04-09T03:06:03.823Z,99332.19
2023-04-09T03:08:30.159Z,99330.56
2023-04-09T03:10:56.736Z,99327.91
2023-04-09T03:13:23.062Z,99328.16
2023-04-09T03:15:53.105Z,99323.63
2023-04-09T03:18:19.472Z,99320.38
2023-04-09T03:20:46.367Z,99321.44
2023-04-09T03:23:12.683Z,99332.06
2023-04-09T03:25:39.046Z,99325.13
2023-04-09T03:28:05.619Z,99318.19
2023-04-09T03:30:31.936Z,99324.53
2023-04-09T03:32:59.447Z,99328.22
2023-04-09T03:35:26.138Z,99322.09
2023-04-09T03:37:52.449Z,99315.97
2023-04-09T03:40:18.770Z,99315.97
2023-04-09T03:42:45.206Z,99310.66
2023-04-09T03:45:11.771Z,99315.97
2023-04-09T03:47:38.118Z,99306.84
2023-04-09T03:50:04.522Z,99315.97
2023-04-09T03:52:31.050Z,99314.38
2023-04-09T03:54:57.361Z,99316.44
2023-04-09T03:57:23.676Z,99316.66
2023-04-09T03:59:50.026Z,99313.41
2023-04-09T04:02:16.420Z,99308.94
2023-04-09T04:04:42.845Z,99302.41
2023-04-09T04:07:09.199Z,99317.47
2023-04-09T04:09:35.793Z,99309.50
2023-04-09T04:12:02.343Z,99313.31
2023-04-09T04:14:28.773Z,99312.28
2023-04-09T04:16:55.991Z,99324.09
2023-04-09T04:19:22.306Z,99323.03
2023-04-09T04:21:48.639Z,99326.06
2023-04-09T04:24:15.189Z,99325.63
2023-04-09T04:26:41.524Z,99320.88
2023-04-09T04:29:07.873Z,99325.16
2023-04-09T04:31:34.245Z,99325.16
2023-04-09T04:34:00.624Z,99331.28
2023-04-09T04:36:26.972Z,99328.41
2023-04-09T04:38:53.561Z,99328.59
2023-04-09T04:41:20.785Z,99328.59
2023-04-09T04:43:47.145Z,99331.28
2023-04-09T04:46:13.496Z,99333.94
2023-04-09T04:48:39.869Z,99328.84
2023-04-09T04:51:06.186Z,99323.97
2023-04-09T04:53:32.489Z,99334.41
2023-04-09T04:55:58.823Z,99331.63
2023-04-09T04:58:25.137Z,99331.81
2023-04-09T05:00:51.473Z,99325.94
2023-04-09T05:03:17.940Z,99334.47
2023-04-09T05:05:45.340Z,99327.31
2023-04-09T05:08:11.648Z,99325.50
2023-04-09T05:10:40.286Z,99329.66
2023-04-09T05:13:06.600Z,99331.41
2023-04-09T05:15:32.906Z,99327.03
2023-04-09T05:17:59.574Z,99328.41
2023-04-09T05:20:27.166Z,99332.47
2023-04-09T05:22:53.493Z,99333.28
2023-04-09T05:25:19.820Z,99334.09
2023-04-09T05:27:46.308Z,99338.16
2023-04-09T05:30:13.362Z,99332.25
2023-04-09T05:32:39.715Z,99332.34
2023-04-09T05:35:06.209Z,99330.75
2023-04-09T05:37:32.955Z,99332.72
2023-04-09T05:39:59.281Z,99331.91
2023-04-09T05:42:25.612Z,99337.00
2023-04-09T05:44:51.938Z,99332.72
2023-04-09T05:47:18.272Z,99339.09
2023-04-09T05:49:44.620Z,99330.75
2023-04-09T05:52:10.951Z,99341.94
2023-04-09T05:54:37.282Z,99343.81
2023-04-09T05:57:03.633Z,99343.00
2023-04-09T05:59:29.971Z,99339.78
2023-04-09T06:01:56.400Z,99338.16
2023-04-09T06:04:22.945Z,99339.41
2023-04-09T06:06:49.446Z,99334.91
2023-04-09T06:09:15.781Z,99337.78
2023-04-09T06:11:42.162Z,99344.97
2023-04-09T06:14:08.485Z,99336.50
2023-04-09T06:16:34.886Z,99351.56
2023-04-09T06:19:01.197Z,99340.81
2023-04-09T06:21:27.513Z,99349.16
2023-04-09T06:23:54.279Z,99350.31
2023-04-09T06:26:21.461Z,99349.28
2023-04-09T06:28:47.865Z,99354.59
2023-04-09T06:31:14.222Z,99354.59
2023-04-09T06:33:40.587Z,99366.03
2023-04-09T06:36:07.127Z,99365.25
2023-04-09T06:38:33.490Z,99369.41
2023-04-09T06:40:59.797Z,99366.72
2023-04-09T06:43:26.108Z,99361.97
2023-04-09T06:45:52.472Z,99369.06
2023-04-09T06:48:18.832Z,99367.56
2023-04-09T06:50:45.319Z,99361.31
2023-04-09T06:53:11.669Z,99369.41
2023-04-09T06:55:37.988Z,99367.16
2023-04-09T06:58:04.359Z,99368.63
2023-04-09T07:00:30.765Z,99374.41
2023-04-09T07:02:57.470Z,99372.91
2023-04-09T07:05:24.469Z,99367.47
2023-04-09T07:07:50.930Z,99366.41
2023-04-09T07:10:17.260Z,99365.16
2023-04-09T07:12:43.615Z,99369.53
2023-04-09T07:15:09.989Z,99369.19
2023-04-09T07:17:36.580Z,99368.25
2023-04-09T07:20:03.950Z,99367.28
2023-04-09T07:22:30.729Z,99371.44
2023-04-09T07:24:57.232Z,99368.66
2023-04-09T07:27:23.918Z,99357.53
2023-04-09T07:29:50.264Z,99368.06
2023-04-09T07:32:16.723Z,99365.03
2023-04-09T07:34:43.360Z,99373.13
2023-04-09T07:37:09.803Z,99363.59
2023-04-09T07:39:36.308Z,99353.59
2023-04-09T07:42:02.884Z,99362.97
2023-04-09T07:44:29.218Z,99365.41
2023-04-09T07:46:55.605Z,99367.84
2023-04-09T07:49:22.112Z,99362.59
2023-04-09T07:51:48.414Z,99359.94
2023-04-09T07:54:14.754Z,99361.88
2023-04-09T07:56:41.150Z,99365.78
2023-04-09T07:59:07.530Z,99364.06
2023-04-09T08:01:34.152Z,99360.78
2023-04-09T08:04:00.659Z,99366.91
2023-04-09T08:06:27.561Z,99366.75
2023-04-09T08:08:54.149Z,99367.56
2023-04-09T08:11:25.173Z,99371.84
2023-04-09T08:13:52.085Z,99367.91
2023-04-09T08:16:18.606Z,99373.69
2023-04-09T08:18:44.987Z,99364.53
2023-04-09T08:21:11.412Z,99374.59
2023-04-09T08:23:37.790Z,99376.75
2023-04-09T08:26:04.109Z,99379.78
2023-04-09T08:28:30.426Z,99384.59
2023-04-09T08:30:56.739Z,99379.22
2023-04-09T08:33:23.100Z,99378.66
2023-04-09T08:35:49.402Z,99375.00
2023-04-09T08:38:16.304Z,99372.88
2023-04-09T08:40:42.619Z,99373.16
2023-04-09T08:43:09.002Z,99376.44
2023-04-09T08:45:35.380Z,99375.22
2023-04-09T08:48:03.659Z,99375.06
2023-04-09T08:50:31.059Z,99378.41
2023-04-09T08:52:57.389Z,99375.34
2023-04-09T08:55:23.725Z,99372.53
2023-04-09T08:57:50.232Z,99375.56
2023-04-09T09:00:16.561Z,99368.19
2023-04-09T09:03:02.765Z,99375.47
2023-04-09T09:05:35.237Z,99374.50
2023-04-09T09:08:01.655Z,99367.91
2023-04-09T09:10:43.891Z,99367.66
2023-04-09T09:13:36.568Z,99367.44
2023-04-09T09:16:12.475Z,99365.59
2023-04-09T09:18:39.360Z,99368.56
2023-04-09T09:21:12.480Z,99364.84
2023-04-09T09:23:38.823Z,99377.47
2023-04-09T09:26:12.325Z,99370.59
2023-04-09T09:28:38.655Z,99368.50
2023-04-09T09:31:08.458Z,99373.13
2023-04-09T09:33:34.889Z,99369.94
2023-04-09T09:36:03.837Z,99370.50
2023-04-09T09:38:30.409Z,99378.28
2023-04-09T09:40:57.111Z,99368.41
2023-04-09T09:43:23.878Z,99368.13
2023-04-09T09:45:50.324Z,99372.38
2023-04-09T09:48:16.707Z,99370.66
2023-04-09T09:50:43.136Z,99369.16
2023-04-09T09:53:10.445Z,99367.34
2023-04-09T09:55:40.535Z,99366.72
2023-04-09T09:58:11.976Z,99363.38
2023-04-09T10:00:38.357Z,99369.53
2023-04-09T10:03:11.622Z,99365.47
2023-04-09T10:05:39.089Z,99359.31
2023-04-09T10:08:05.445Z,99349.47
2023-04-09T10:10:32.371Z,99348.06
2023-04-09T10:12:58.887Z,99350.66
2023-04-09T10:15:25.807Z,99352.28
2023-04-09T10:17:52.175Z,99346.03
2023-04-09T10:20:27.089Z,99349.25
2023-04-09T10:22:53.630Z,99355.09
2023-04-09T10:25:20.654Z,99346.50
2023-04-09T10:27:49.126Z,99347.81
2023-04-09T10:30:31.300Z,99344.81
2023-04-09T10:33:07.837Z,99347.16
2023-04-09T10:35:34.174Z,99340.66
2023-04-09T10:38:00.515Z,99344.09
2023-04-09T10:40:27.944Z,99343.84
2023-04-09T10:42:54.799Z,99347.78
2023-04-09T10:45:22.484Z,99340.50
2023-04-09T10:47:52.134Z,99340.41
2023-04-09T10:50:18.388Z,99343.66
2023-04-09T10:52:45.013Z,99343.66
2023-04-09T10:55:33.809Z,99345.53
2023-04-09T10:58:00.161Z,99342.28
2023-04-09T11:00:26.534Z,99340.66
2023-04-09T11:03:11.583Z,99334.03
2023-04-09T11:05:40.995Z,99347.34
2023-04-09T11:08:10.894Z,99339.03
2023-04-09T11:10:41.154Z,99336.84
2023-04-09T11:13:08.135Z,99333.13
2023-04-09T11:15:34.903Z,99330.97
2023-04-09T11:18:02.197Z,99327.47
2023-04-09T11:20:28.630Z,99323.69
2023-04-09T11:22:55.192Z,99320.50
2023-04-09T11:25:27.111Z,99317.84
2023-04-09T11:27:53.424Z,99319.97
2023-04-09T11:30:19.822Z,99317.53
2023-04-09T11:32:46.176Z,99316.94
2023-04-09T11:35:13.365Z,99318.81
2023-04-09T11:37:39.800Z,99320.09
2023-04-09T11:40:06.373Z,99324.59
2023-04-09T11:42:32.743Z,99323.00
2023-04-09T11:44:59.068Z,99324.28
2023-04-09T11:47:25.560Z,99326.38
2023-04-09T11:49:51.918Z,99322.09
2023-04-09T11:52:18.243Z,99322.91
2023-04-09T11:54:50.723Z,99323.16
2023-04-09T11:57:17.040Z,99320.13
2023-04-09T11:59:43.444Z,99309.72
2023-04-09T12:02:09.858Z,99311.34
2023-04-09T12:04:36.426Z,99319.59
2023-04-09T12:07:02.875Z,99310.72
2023-04-09T12:09:29.246Z,99316.06
2023-04-09T12:11:57.368Z,99323.25
2023-04-09T12:14:23.765Z,99316.28
2023-04-09T12:16:53.160Z,99319.22
2023-04-09T12:19:20.455Z,99315.97
2023-04-09T12:21:49.776Z,99325.00
2023-04-09T12:24:17.028Z,99320.72
2023-04-09T12:26:43.535Z,99314.00
2023-04-09T12:29:09.865Z,99319.34
2023-04-09T12:31:36.710Z,99321.44
2023-04-09T12:34:03.117Z,99315.31
2023-04-09T12:36:29.826Z,99321.19
2023-04-09T12:38:56.307Z,99316.66
2023-04-09T12:41:22.616Z,99313.19
2023-04-09T12:43:49.268Z,99315.66
2023-04-09T12:46:15.782Z,99303.34
2023-04-09T12:48:42.133Z,99312.97
2023-04-09T12:51:08.913Z,99309.72
2023-04-09T12:53:35.421Z,99309.72
2023-04-09T12:56:01.758Z,99300.13
2023-04-09T12:58:28.416Z,99297.47
2023-04-09T13:00:56.764Z,99290.81
2023-04-09T13:03:23.705Z,99293.84
2023-04-09T13:05:50.339Z,99281.09
2023-04-09T13:08:17.156Z,99284.31
2023-04-09T13:10:43.476Z,99278.75
2023-04-09T13:13:12.209Z,99279.00
2023-04-09T13:15:38.980Z,99273.66
2023-04-09T13:18:05.352Z,99279.47
2023-04-09T13:20:31.702Z,99281.56
2023-04-09T13:22:58.014Z,99274.03
2023-04-09T13:25:24.353Z,99275.09
2023-04-09T13:27:50.713Z,99271.88
2023-04-09T13:30:17.064Z,99273.72
2023-04-09T13:32:43.715Z,99267.81
2023-04-09T13:35:10.839Z,99267.00
2023-04-09T13:37:37.165Z,99267.00
2023-04-09T13:40:04.056Z,99261.13
2023-04-09T13:42:31.381Z,99259.47
2023-04-09T13:44:58.646Z,99258.91
2023-04-09T13:47:24.989Z,99255.69
2023-04-09T13:49:54.194Z,99265.50
2023-04-09T13:52:20.536Z,99270.28
2023-04-09T13:54:46.881Z,99266.81
2023-04-09T13:57:13.187Z,99261.50
2023-04-09T13:59:41.611Z,99266.00
2023-04-09T14:02:08.850Z,99256.63
2023-04-09T14:04:35.284Z,99256.06
2023-04-09T14:07:01.678Z,99253.88
2023-04-09T14:09:28.025Z,99251.44
2023-04-09T14:11:55.100Z,99253.53
2023-04-09T14:14:21.436Z,99250.06
2023-04-09T14:16:48.316Z,99258.03
2023-04-09T14:19:14.699Z,99250.84
2023-04-09T14:21:41.139Z,99242.78
2023-04-09T14:24:07.740Z,99252.16
2023-04-09T14:26:34.077Z,99258.53
2023-04-09T14:29:00.555Z,99248.91
2023-04-09T14:31:26.924Z,99238.13
2023-04-09T14:33:53.417Z,99243.28
2023-04-09T14:36:19.810Z,99249.44
2023-04-09T14:38:46.192Z,99247.22
2023-04-09T14:41:12.569Z,99246.03
2023-04-09T14:43:39.607Z,99248.78
2023-04-09T14:46:07.057Z,99236.03
2023-04-09T14:48:34.159Z,99234.75
2023-04-09T14:51:00.503Z,99225.94
2023-04-09T14:53:26.832Z,99229.16
2023-04-09T14:55:53.152Z,99222.56
2023-04-09T14:58:19.499Z,99215.09
2023-04-09T15:00:45.881Z,99212.22
2023-04-09T15:03:12.553Z,99220.44
2023-04-09T15:05:39.198Z,99229.81
2023-04-09T15:08:05.828Z,99226.09
2023-04-09T15:10:32.154Z,99219.97
2023-04-09T15:12:58.467Z,99215.69
2023-04-09T15:15:24.790Z,99209.56
2023-04-09T15:17:51.384Z,99205.56
2023-04-09T15:20:18.380Z,99206.63
2023-04-09T15:22:44.699Z,99199.63
2023-04-09T15:25:13.739Z,99205.03
2023-04-09T15:27:40.827Z,99200.16
2023-04-09T15:30:07.544Z,99208.63
2023-04-09T15:32:33.873Z,99199.28
2023-04-09T15:35:00.752Z,99214.94
2023-04-09T15:37:27.118Z,99206.22
2023-04-09T15:39:53.430Z,99208.00
2023-04-09T15:42:22.634Z,99210.75
2023-04-09T15:44:49.713Z,99207.66
2023-04-09T15:47:16.205Z,99204.53
2023-04-09T15:49:42.697Z,99203.53
2023-04-09T15:52:09.044Z,99199.59
2023-04-09T15:54:35.612Z,99192.41
2023-04-09T15:57:02.104Z,99189.16
2023-04-09T15:59:28.443Z,99185.94
2023-04-09T16:01:54.821Z,99191.00
2023-04-09T16:04:21.260Z,99196.34
2023-04-09T16:06:48.211Z,99188.34
2023-04-09T16:09:14.552Z,99188.66
2023-04-09T16:11:41.018Z,99188.34
2023-04-09T16:14:08.976Z,99188.94
2023-04-09T16:16:35.923Z,99185.75
2023-04-09T16:19:02.243Z,99188.13
2023-04-09T16:21:29.058Z,99185.44
2023-04-09T16:23:55.937Z,99180.41
2023-04-09T16:26:22.251Z,99185.75
2023-04-09T16:28:48.632Z,99181.00
2023-04-09T16:31:15.363Z,99177.81
2023-04-09T16:33:41.803Z,99181.00
2023-04-09T16:36:08.163Z,99172.72
2023-04-09T16:38:34.531Z,99177.19
2023-04-09T16:41:00.963Z,99178.31
2023-04-09T16:43:27.313Z,99177.19
2023-04-09T16:45:53.670Z,99183.88
2023-04-09T16:48:20.096Z,99185.28
2023-04-09T16:50:46.436Z,99175.81
2023-04-09T16:53:13.071Z,99175.97
2023-04-09T16:55:39.483Z,99177.41
2023-04-09T16:58:05.817Z,99171.31
2023-04-09T17:00:32.439Z,99176.41
2023-04-09T17:02:58.938Z,99183.34
2023-04-09T17:05:25.415Z,99177.34
2023-04-09T17:07:53.493Z,99184.22
2023-04-09T17:10:22.267Z,99184.31
2023-04-09T17:12:48.631Z,99185.09
2023-04-09T17:15:15.014Z,99185.34
2023-04-09T17:17:41.406Z,99183.41
2023-04-09T17:20:07.909Z,99184.78
2023-04-09T17:22:35.099Z,99175.91
2023-04-09T17:25:01.871Z,99180.69
2023-04-09T17:27:28.586Z,99179.81
2023-04-09T17:29:54.926Z,99189.50
2023-04-09T17:32:21.275Z,99189.81
2023-04-09T17:34:50.739Z,99188.16
2023-04-09T17:37:17.055Z,99187.09
2023-04-09T17:39:43.371Z,99186.75
2023-04-09T17:42:11.789Z,99188.06
2023-04-09T17:44:38.508Z,99189.88
2023-04-09T17:47:05.650Z,99194.38
2023-04-09T17:49:32.240Z,99185.81
2023-04-09T17:51:58.874Z,99194.31
2023-04-09T17:54:25.809Z,99181.81
2023-04-09T17:56:52.327Z,99179.88
2023-04-09T17:59:18.715Z,99178.00
2023-04-09T18:01:45.096Z,99175.16
2023-04-09T18:04:11.856Z,99177.41
2023-04-09T18:06:38.411Z,99176.03
2023-04-09T18:09:04.761Z,99174.66
2023-04-09T18:11:31.188Z,99178.63
2023-04-09T18:13:57.567Z,99178.31
2023-04-09T18:16:23.916Z,99180.50
2023-04-09T18:18:50.253Z,99183.63
2023-04-09T18:21:17.098Z,99176.63
2023-04-09T18:23:43.462Z,99173.06
2023-04-09T18:26:09.834Z,99168.84
2023-04-09T18:28:36.299Z,99171.19
2023-04-09T18:31:02.679Z,99176.78
2023-04-09T18:33:29.030Z,99174.13
2023-04-09T18:35:55.437Z,99174.34
2023-04-09T18:38:21.818Z,99176.22
2023-04-09T18:40:48.151Z,99181.00
2023-04-09T18:43:14.477Z,99179.38
2023-04-09T18:45:40.920Z,99175.59
2023-04-09T18:48:08.655Z,99172.91
2023-04-09T18:50:35.125Z,99173.72
2023-04-09T18:53:03.375Z,99172.91
2023-04-09T18:55:29.849Z,99176.66
2023-04-09T18:57:57.341Z,99174.19
2023-04-09T19:00:23.683Z,99177.13
2023-04-09T19:02:50.116Z,99177.94
2023-04-09T19:05:17.484Z,99175.50
2023-04-09T19:07:43.813Z,99178.72
2023-04-09T19:10:10.313Z,99191.59
2023-04-09T19:12:37.222Z,99188.13
2023-04-09T19:15:04.732Z,99197.16
2023-04-09T19:17:32.030Z,99202.47
2023-04-09T19:19:58.433Z,99196.84
2023-04-09T19:22:24.788Z,99203.78
2023-04-09T19:24:51.165Z,99202.19
2023-04-09T19:27:18.583Z,99198.72
2023-04-09T19:29:46.525Z,99195.00
2023-04-09T19:32:13.349Z,99190.88
2023-04-09T19:34:39.778Z,99190.94
2023-04-09T19:37:06.218Z,99195.00
2023-04-09T19:39:32.594Z,99187.47
2023-04-09T19:41:58.924Z,99175.19
2023-04-09T19:44:25.435Z,99181.81
2023-04-09T19:46:52.006Z,99185.53
2023-04-09T19:49:18.349Z,99183.66
2023-04-09T19:51:44.833Z,99185.19
2023-04-09T19:54:11.201Z,99178.78
2023-04-09T19:56:38.258Z,99190.06
2023-04-09T19:59:04.689Z,99187.91
2023-04-09T20:01:31.237Z,99184.72
2023-04-09T20:03:57.819Z,99190.06
2023-04-09T20:06:24.330Z,99186.09
2023-04-09T20:08:51.097Z,99191.44
2023-04-09T20:11:17.777Z,99194.09
2023-04-09T20:13:44.116Z,99195.97
2023-04-09T20:16:10.459Z,99198.63
2023-04-09T20:18:36.901Z,99193.56
2023-04-09T20:21:03.259Z,99202.66
2023-04-09T20:23:30.235Z,99194.91
2023-04-09T20:25:56.851Z,99200.53
2023-04-09T20:28:23.208Z,99194.63
2023-04-09T20:30:49.619Z,99191.81
2023-04-09T20:33:16.078Z,99187.09
2023-04-09T20:35:42.485Z,99187.84
2023-04-09T20:38:08.813Z,99187.59
2023-04-09T20:40:35.490Z,99187.03
2023-04-09T20:43:01.872Z,99181.31
2023-04-09T20:45:28.211Z,99174.50
2023-04-09T20:47:54.837Z,99179.94
2023-04-09T20:50:21.683Z,99174.06
2023-04-09T20:52:49.518Z,99170.06
2023-04-09T20:55:15.841Z,99169.81
2023-04-09T20:57:42.342Z,99171.97
2023-04-09T21:00:08.897Z,99175.44
2023-04-09T21:02:35.374Z,99164.25
2023-04-09T21:05:15.105Z,99173.88
2023-04-09T21:07:47.991Z,99160.53
2023-04-09T21:10:14.310Z,99150.41
2023-04-09T21:12:40.667Z,99158.72
2023-04-09T21:15:07.220Z,99154.69
2023-04-09T21:17:33.541Z,99150.16
2023-04-09T21:20:00.240Z,99153.63
2023-04-09T21:22:26.787Z,99151.53
2023-04-09T21:24:53.496Z,99150.16
2023-04-09T21:27:20.199Z,99156.56
2023-04-09T21:29:46.626Z,99148.53
2023-04-09T21:32:12.965Z,99158.16
2023-04-09T21:34:39.521Z,99151.53
2023-04-09T21:37:06.230Z,99155.25
2023-04-09T21:39:32.547Z,99146.19
2023-04-09T21:41:58.885Z,99147.00
2023-04-09T21:44:25.310Z,99149.66
2023-04-09T21:46:52.175Z,99151.22
2023-04-09T21:49:18.479Z,99149.13
2023-04-09T21:51:45.204Z,99149.66
2023-04-09T21:54:11.509Z,99152.88
2023-04-09T21:56:37.881Z,99149.41
2023-04-09T21:59:04.235Z,99147.47
2023-04-09T22:01:31.398Z,99151.72
2023-04-09T22:03:58.138Z,99147.72
2023-04-09T22:06:24.560Z,99153.31
2023-04-09T22:08:56.199Z,99150.91
2023-04-09T22:11:27.511Z,99153.03
2023-04-09T22:13:54.992Z,99155.97
2023-04-09T22:16:21.698Z,99153.25
2023-04-09T22:18:48.205Z,99151.59
2023-04-09T22:21:15.585Z,99147.31
2023-04-09T22:23:41.918Z,99146.75
2023-04-09T22:26:08.233Z,99148.31
2023-04-09T22:28:34.755Z,99145.09
2023-04-09T22:31:01.253Z,99144.31
2023-04-09T22:33:27.623Z,99144.81
2023-04-09T22:35:54.113Z,99138.13
2023-04-09T22:38:20.944Z,99149.59
2023-04-09T22:40:47.306Z,99142.88
2023-04-09T22:43:13.757Z,99137.31
2023-04-09T22:45:40.072Z,99134.34
2023-04-09T22:48:07.592Z,99129.22
2023-04-09T22:50:34.121Z,99134.56
2023-04-09T22:53:00.964Z,99130.56
2023-04-09T22:55:27.383Z,99134.25
2023-04-09T22:57:54.804Z,99126.94
2023-04-09T23:00:21.118Z,99124.66
2023-04-09T23:02:47.637Z,99126.75
2023-04-09T23:05:14.486Z,99129.69
2023-04-09T23:07:42.656Z,99119.44
2023-04-09T23:10:09.138Z,99121.00
2023-04-09T23:12:35.814Z,99119.66
2023-04-09T23:15:02.173Z,99123.63
2023-04-09T23:17:28.590Z,99119.34
2023-04-09T23:19:54.941Z,99125.75
2023-04-09T23:22:21.278Z,99132.16
2023-04-09T23:24:47.578Z,99132.63
2023-04-09T23:27:14.073Z,99138.78
2023-04-09T23:29:40.411Z,99138.72
2023-04-09T23:32:07.016Z,99138.41
2023-04-09T23:34:33.344Z,99135.44
2023-04-09T23:36:59.895Z,99139.78
2023-04-09T23:39:26.373Z,99139.59
2023-04-09T23:41:52.741Z,99141.19
2023-04-09T23:44:19.382Z,99139.38
2023-04-09T23:46:45.749Z,99135.88
2023-04-09T23:49:12.238Z,99139.19
2023-04-09T23:51:38.566Z,99135.78
2023-04-09T23:54:04.932Z,99132.44
2023-04-09T23:56:31.288Z,99130.31
2023-04-09T23:58:57.607Z,99131.13
